createdAt,value
2023-03-21T00:02:43.186Z,98288.19
2023-03-21T00:05:52.206Z,98232.78
2023-03-21T00:08:59.169Z,98280.94
2023-03-21T00:12:07.572Z,98282.09
2023-03-21T00:15:20.590Z,98291.88
2023-03-21T00:18:31.844Z,98292.50
2023-03-21T00:21:49.135Z,98288.19
2023-03-21T00:25:01.765Z,98287.63
2023-03-21T00:28:08.936Z,98284.44
2023-03-21T00:31:22.427Z,98275.47
2023-03-21T00:34:43.107Z,98277.00
2023-03-21T00:37:49.793Z,98281.72
2023-03-21T00:41:01.928Z,98283.88
2023-03-21T00:44:11.738Z,98262.50
2023-03-21T00:47:20.724Z,98286.31
2023-03-21T00:50:32.578Z,98285.47
2023-03-21T00:53:39.353Z,98288.53
2023-03-21T00:56:45.210Z,98288.78
2023-03-21T00:59:52.036Z,98293.66
2023-03-21T01:03:17.896Z,98299.78
2023-03-21T01:06:33.469Z,98293.06
2023-03-21T01:09:39.443Z,98276.91
2023-03-21T01:12:46.609Z,98297.31
2023-03-21T01:15:55.895Z,98287.25
2023-03-21T01:19:05.223Z,98288.59
2023-03-21T01:22:16.375Z,98261.34
2023-03-21T01:25:23.610Z,98263.00
2023-03-21T01:28:32.223Z,98255.63
2023-03-21T01:31:56.069Z,98285.53
2023-03-21T01:35:03.291Z,98266.16
2023-03-21T01:38:20.731Z,98275.06
2023-03-21T01:41:47.744Z,98262.09
2023-03-21T01:46:00.695Z,98266.31
2023-03-21T01:49:34.532Z,98267.03
2023-03-21T01:52:50.280Z,98259.63
2023-03-21T01:56:17.119Z,98255.16
2023-03-21T02:00:06.582Z,98262.50
2023-03-21T02:03:35.353Z,98237.47
2023-03-21T02:07:09.096Z,98261.53
2023-03-21T02:10:36.741Z,98253.00
2023-03-21T02:13:48.741Z,98254.28
2023-03-21T02:17:18.065Z,98240.19
2023-03-21T02:21:27.087Z,98202.88
2023-03-21T02:25:36.742Z,98253.53
2023-03-21T02:33:09.980Z,98249.69
2023-03-21T02:36:59.507Z,98241.69
2023-03-21T02:40:28.261Z,98250.47
2023-03-21T02:43:48.612Z,98255.72
2023-03-21T02:47:06.468Z,98220.31
2023-03-21T02:50:31.093Z,98259.25
2023-03-21T02:53:53.338Z,98268.72
2023-03-21T02:57:10.658Z,98241.47
2023-03-21T03:00:25.061Z,98259.19
2023-03-21T03:03:57.113Z,98230.41
2023-03-21T03:16:26.034Z,98235.09
2023-03-21T03:19:50.665Z,98223.06
2023-03-21T03:23:13.916Z,98249.47
2023-03-21T03:26:29.968Z,98259.97
2023-03-21T03:29:45.567Z,98227.13
2023-03-21T03:33:06.685Z,98253.00
2023-03-21T03:36:31.582Z,98235.84
2023-03-21T03:39:54.710Z,98226.69
2023-03-21T03:43:11.475Z,98250.03
2023-03-21T03:46:28.455Z,98251.19
2023-03-21T03:49:51.561Z,98235.22
2023-03-21T03:53:16.383Z,98225.72
2023-03-21T03:56:31.949Z,98250.59
2023-03-21T03:59:40.774Z,98229.34
2023-03-21T04:03:07.484Z,98248.78
2023-03-21T04:06:16.580Z,98232.91
2023-03-21T04:09:34.020Z,98220.16
2023-03-21T04:12:43.403Z,98257.94
2023-03-21T04:16:00.378Z,98229.94
2023-03-21T04:19:06.792Z,98226.53
2023-03-21T04:22:17.279Z,98224.56
2023-03-21T04:25:34.000Z,98238.91
2023-03-21T04:28:43.201Z,98256.34
2023-03-21T04:32:02.109Z,98239.81
2023-03-21T04:35:12.371Z,98234.19
2023-03-21T04:38:21.140Z,98225.34
2023-03-21T04:41:28.336Z,98238.84
2023-03-21T04:44:34.692Z,98246.72
2023-03-21T04:47:42.783Z,98248.41
2023-03-21T04:50:49.721Z,98218.34
2023-03-21T04:54:01.307Z,98241.22
2023-03-21T04:57:08.176Z,98255.31
2023-03-21T05:00:17.661Z,98250.59
2023-03-21T05:03:23.882Z,98237.34
2023-03-21T05:06:33.101Z,98213.19
2023-03-21T05:09:44.684Z,98238.53
2023-03-21T05:20:36.532Z,98227.97
2023-03-21T05:25:05.319Z,98205.88
2023-03-21T05:28:56.830Z,98242.19
2023-03-21T05:32:05.957Z,98258.25
2023-03-21T05:35:20.393Z,98268.34
2023-03-21T05:38:33.745Z,98273.59
2023-03-21T05:41:43.540Z,98244.94
2023-03-21T05:45:05.634Z,98269.31
2023-03-21T05:48:14.031Z,98269.75
2023-03-21T05:51:39.632Z,98268.59
2023-03-21T05:54:50.244Z,98253.88
2023-03-21T05:58:04.286Z,98245.00
2023-03-21T06:01:17.545Z,98265.44
2023-03-21T06:04:32.245Z,98231.50
2023-03-21T06:07:38.852Z,98246.00
2023-03-21T06:10:49.769Z,98259.16
2023-03-21T06:14:05.438Z,98215.47
2023-03-21T06:17:16.938Z,98240.56
2023-03-21T06:20:30.588Z,98253.94
2023-03-21T06:23:45.273Z,98254.25
2023-03-21T06:26:51.741Z,98252.25
2023-03-21T06:30:01.823Z,98262.34
2023-03-21T06:33:22.024Z,98225.84
2023-03-21T06:36:29.136Z,98278.19
2023-03-21T06:39:36.037Z,98281.53
2023-03-21T06:42:42.991Z,98279.22
2023-03-21T06:45:50.457Z,98285.28
2023-03-21T06:48:59.995Z,98288.38
2023-03-21T06:52:08.748Z,98285.84
2023-03-21T06:55:15.577Z,98288.94
2023-03-21T06:58:22.363Z,98293.31
2023-03-21T07:01:30.732Z,98294.25
2023-03-21T07:04:45.935Z,98294.06
2023-03-21T07:07:57.746Z,98299.88
2023-03-21T07:11:07.316Z,98306.59
2023-03-21T07:14:17.605Z,98307.56
2023-03-21T07:17:23.444Z,98311.22
2023-03-21T07:20:33.974Z,98316.97
2023-03-21T07:23:42.220Z,98325.13
2023-03-21T07:26:49.322Z,98325.59
2023-03-21T07:29:55.042Z,98328.47
2023-03-21T07:33:01.695Z,98326.72
2023-03-21T07:36:15.660Z,98327.13
2023-03-21T07:39:23.734Z,98323.63
2023-03-21T07:42:33.802Z,98323.16
2023-03-21T07:45:41.106Z,98328.13
2023-03-21T07:48:47.181Z,98318.25
2023-03-21T07:51:56.341Z,98327.72
2023-03-21T07:55:02.142Z,98328.00
2023-03-21T07:58:13.146Z,98324.88
2023-03-21T08:01:19.045Z,98325.31
2023-03-21T08:04:26.153Z,98326.25
2023-03-21T08:07:37.887Z,98328.63
2023-03-21T08:10:47.004Z,98332.53
2023-03-21T08:13:54.092Z,98334.16
2023-03-21T08:17:01.004Z,98335.31
2023-03-21T08:20:12.183Z,98342.94
2023-03-21T08:23:22.581Z,98342.31
2023-03-21T08:26:28.678Z,98344.69
2023-03-21T08:29:40.535Z,98335.78
2023-03-21T08:32:50.328Z,98337.63
2023-03-21T08:36:02.352Z,98341.47
2023-03-21T08:39:11.942Z,98343.09
2023-03-21T08:42:18.590Z,98343.47
2023-03-21T08:45:25.781Z,98334.47
2023-03-21T08:48:33.087Z,98337.09
2023-03-21T08:51:41.520Z,98339.28
2023-03-21T08:54:51.022Z,98337.75
2023-03-21T08:57:58.305Z,98336.00
2023-03-21T09:01:05.371Z,98343.91
2023-03-21T09:04:11.449Z,98346.34
2023-03-21T09:07:18.242Z,98352.91
2023-03-21T09:10:27.370Z,98357.91
2023-03-21T09:13:34.204Z,98358.81
2023-03-21T09:16:40.061Z,98359.56
2023-03-21T09:19:47.336Z,98345.28
2023-03-21T09:22:55.071Z,98358.53
2023-03-21T09:26:04.500Z,98358.00
2023-03-21T09:29:10.291Z,98364.44
2023-03-21T09:32:17.679Z,98368.22
2023-03-21T09:35:24.908Z,98366.31
2023-03-21T09:38:37.731Z,98372.03
2023-03-21T09:42:08.450Z,98375.72
2023-03-21T09:45:27.328Z,98373.16
2023-03-21T09:48:57.139Z,98375.09
2023-03-21T09:52:16.366Z,98380.84
2023-03-21T09:55:31.154Z,98369.59
2023-03-21T09:58:53.062Z,98372.69
2023-03-21T10:02:03.422Z,98368.69
2023-03-21T10:05:22.824Z,98358.88
2023-03-21T10:08:36.763Z,98375.69
2023-03-21T10:11:50.607Z,98368.22
2023-03-21T10:15:05.522Z,98363.72
2023-03-21T10:18:24.418Z,98362.25
2023-03-21T10:21:58.676Z,98372.16
2023-03-21T10:24:59.497Z,98355.78
2023-03-21T10:28:10.461Z,98367.06
2023-03-21T10:31:27.231Z,98371.44
2023-03-21T10:34:41.059Z,98361.97
2023-03-21T10:37:50.396Z,98359.81
2023-03-21T10:40:57.404Z,98365.81
2023-03-21T10:44:14.983Z,98371.97
2023-03-21T10:47:29.841Z,98360.06
2023-03-21T10:50:38.789Z,98369.72
2023-03-21T10:53:54.678Z,98373.06
2023-03-21T10:57:08.843Z,98371.16
2023-03-21T11:00:25.882Z,98366.81
2023-03-21T11:03:44.797Z,98369.69
2023-03-21T11:06:58.213Z,98368.44
2023-03-21T11:10:23.035Z,98367.06
2023-03-21T11:13:41.581Z,98371.31
2023-03-21T11:16:48.331Z,98368.13
2023-03-21T11:20:00.877Z,98368.34
2023-03-21T11:23:09.627Z,98362.31
2023-03-21T11:26:26.341Z,98355.81
2023-03-21T11:29:39.021Z,98352.88
2023-03-21T11:32:46.473Z,98358.06
2023-03-21T11:36:08.292Z,98351.41
2023-03-21T11:39:34.154Z,98349.44
2023-03-21T11:42:49.797Z,98343.97
2023-03-21T11:46:01.775Z,98341.88
2023-03-21T11:49:08.618Z,98347.34
2023-03-21T11:52:34.992Z,98343.56
2023-03-21T11:56:01.588Z,98351.53
2023-03-21T11:59:44.161Z,98338.94
2023-03-21T12:03:17.737Z,98340.75
2023-03-21T12:06:36.197Z,98338.22
2023-03-21T12:09:58.600Z,98345.53
2023-03-21T12:13:29.508Z,98337.53
2023-03-21T12:16:57.154Z,98345.09
2023-03-21T12:20:36.576Z,98335.50
2023-03-21T12:24:05.084Z,98337.84
2023-03-21T12:27:37.279Z,98337.41
2023-03-21T12:30:57.758Z,98333.41
2023-03-21T12:34:25.171Z,98337.50
2023-03-21T12:37:46.396Z,98329.41
2023-03-21T12:41:14.533Z,98326.41
2023-03-21T12:44:29.731Z,98324.84
2023-03-21T12:47:39.326Z,98320.25
2023-03-21T12:50:51.311Z,98321.75
2023-03-21T12:54:12.503Z,98315.47
2023-03-21T12:57:26.303Z,98304.47
2023-03-21T13:00:44.744Z,98306.72
2023-03-21T13:04:10.882Z,98296.50
2023-03-21T13:07:26.641Z,98303.03
2023-03-21T13:10:36.489Z,98301.72
2023-03-21T13:13:52.730Z,98296.72
2023-03-21T13:17:13.838Z,98291.13
2023-03-21T13:20:33.522Z,98296.75
2023-03-21T13:23:42.563Z,98295.94
2023-03-21T13:26:55.845Z,98301.78
2023-03-21T13:30:06.755Z,98305.22
2023-03-21T13:33:24.239Z,98293.50
2023-03-21T13:36:34.711Z,98291.22
2023-03-21T13:39:49.954Z,98290.09
2023-03-21T13:43:03.829Z,98287.72
2023-03-21T13:46:13.458Z,98285.59
2023-03-21T13:49:36.311Z,98288.09
2023-03-21T13:52:42.140Z,98288.31
2023-03-21T13:56:01.059Z,98291.84
2023-03-21T13:59:12.827Z,98289.19
2023-03-21T14:02:33.758Z,98273.97
2023-03-21T14:05:43.314Z,98269.50
2023-03-21T14:08:52.818Z,98274.78
2023-03-21T14:12:07.420Z,98268.94
2023-03-21T14:15:24.467Z,98266.91
2023-03-21T14:22:03.642Z,98267.38
2023-03-21T14:25:16.784Z,98262.63
2023-03-21T14:28:28.200Z,98261.78
2023-03-21T14:31:35.705Z,98270.63
2023-03-21T14:34:43.482Z,98260.16
2023-03-21T14:37:52.227Z,98259.97
2023-03-21T14:41:00.143Z,98262.84
2023-03-21T14:44:25.911Z,98265.34
2023-03-21T14:47:36.803Z,98259.53
2023-03-21T14:50:51.058Z,98261.78
2023-03-21T14:54:01.274Z,98256.94
2023-03-21T14:57:16.431Z,98265.28
2023-03-21T15:00:29.504Z,98256.91
2023-03-21T15:03:38.076Z,98269.22
2023-03-21T15:07:02.057Z,98261.72
2023-03-21T15:10:19.405Z,98259.56
2023-03-21T15:13:33.237Z,98256.28
2023-03-21T15:16:41.443Z,98259.84
2023-03-21T15:19:48.413Z,98258.34
2023-03-21T15:23:00.727Z,98254.56
2023-03-21T15:26:10.969Z,98255.38
2023-03-21T15:29:19.727Z,98245.59
2023-03-21T15:32:31.251Z,98244.47
2023-03-21T15:35:43.844Z,98242.84
2023-03-21T15:38:51.802Z,98239.03
2023-03-21T15:42:08.028Z,98239.84
2023-03-21T15:45:25.755Z,98234.91
2023-03-21T15:48:36.958Z,98241.78
2023-03-21T15:51:49.150Z,98243.13
2023-03-21T15:54:59.443Z,98235.22
2023-03-21T15:58:19.158Z,98228.78
2023-03-21T16:01:29.111Z,98224.69
2023-03-21T16:04:35.900Z,98236.03
2023-03-21T16:07:50.237Z,98232.59
2023-03-21T16:11:11.640Z,98238.81
2023-03-21T16:14:20.898Z,98237.16
2023-03-21T16:17:37.845Z,98242.06
2023-03-21T16:20:49.269Z,98238.41
2023-03-21T16:23:56.282Z,98230.50
2023-03-21T16:27:03.256Z,98238.06
2023-03-21T16:30:18.272Z,98235.69
2023-03-21T16:33:25.528Z,98240.59
2023-03-21T16:36:36.639Z,98237.69
2023-03-21T16:39:42.650Z,98244.06
2023-03-21T16:42:49.256Z,98240.19
2023-03-21T16:45:57.784Z,98243.81
2023-03-21T16:49:04.505Z,98250.09
2023-03-21T16:52:16.797Z,98250.09
2023-03-21T16:55:23.997Z,98251.25
2023-03-21T16:58:29.872Z,98248.22
2023-03-21T17:01:41.541Z,98245.75
2023-03-21T17:04:49.708Z,98248.75
2023-03-21T17:07:57.114Z,98251.38
2023-03-21T17:11:06.443Z,98256.34
2023-03-21T17:14:17.000Z,98260.88
2023-03-21T17:17:25.390Z,98262.81
2023-03-21T17:20:40.416Z,98274.38
2023-03-21T17:23:47.786Z,98269.22
2023-03-21T17:26:56.095Z,98275.66
2023-03-21T17:30:02.433Z,98273.44
2023-03-21T17:33:12.314Z,98279.00
2023-03-21T17:36:22.874Z,98285.34
2023-03-21T17:39:32.306Z,98290.53
2023-03-21T17:42:38.482Z,98286.16
2023-03-21T17:45:48.404Z,98282.81
2023-03-21T17:48:59.114Z,98275.19
2023-03-21T17:52:11.628Z,98280.56
2023-03-21T17:55:21.438Z,98279.19
2023-03-21T17:58:31.967Z,98277.19
2023-03-21T18:01:38.236Z,98284.00
2023-03-21T18:04:47.620Z,98279.09
2023-03-21T18:08:09.419Z,98270.13
2023-03-21T18:11:23.009Z,98286.97
2023-03-21T18:14:30.291Z,98282.09
2023-03-21T18:17:40.413Z,98283.53
2023-03-21T18:20:54.045Z,98277.63
2023-03-21T18:24:01.562Z,98288.63
2023-03-21T18:27:08.806Z,98278.91
2023-03-21T18:30:44.335Z,98275.09
2023-03-21T18:33:51.406Z,98281.19
2023-03-21T18:37:03.851Z,98276.28
2023-03-21T18:40:13.988Z,98279.09
2023-03-21T18:46:50.722Z,98281.06
2023-03-21T18:50:13.333Z,98277.00
2023-03-21T18:53:24.749Z,98281.00
2023-03-21T18:57:31.752Z,98282.34
2023-03-21T18:59:59.080Z,98288.97
2023-03-21T19:03:22.172Z,98292.50
2023-03-21T23:01:07.190Z,98203.16
2023-03-21T23:04:14.469Z,98212.00
2023-03-21T23:07:21.006Z,98222.03
2023-03-21T23:10:28.296Z,98199.28
2023-03-21T23:13:34.626Z,98212.00
2023-03-21T23:16:45.419Z,98223.47
2023-03-21T23:19:52.997Z,98183.22
2023-03-21T23:23:00.661Z,98227.88
2023-03-21T23:26:07.151Z,98197.91
2023-03-21T23:29:15.367Z,98207.75
2023-03-21T23:32:24.813Z,98174.53
2023-03-21T23:35:35.582Z,98233.47
2023-03-21T23:38:44.529Z,98192.56
